Time;durP1;ratioP1;P1;durP2;ratioP2;P2;SDS_P1;SDS_P2;PMS_P1;PMS_P2;Temp;Humidity;BMP_temperature;BMP_pressure;BME280_temperature;BME280_humidity;BME280_pressure;Samples;Min_cycle;Max_cycle;Signal;HPM_P1;HPM_P2
2022/01/08 00:00:28;;;;;;;9.57;4.68;;;-3.10;81.90;;;;;;4997580;28;20026;-78
2022/01/08 00:02:54;;;;;;;11.35;5.75;;;-3.20;81.80;;;;;;5014651;28;20066;-78
2022/01/08 00:05:20;;;;;;;12.68;6.28;;;-3.30;81.90;;;;;;5015052;28;20127;-78
2022/01/08 00:07:46;;;;;;;12.70;6.10;;;-3.30;82.40;;;;;;5014614;28;20033;-78
2022/01/08 00:10:12;;;;;;;16.48;7.45;;;-3.30;83.30;;;;;;5014132;28;20030;-77
2022/01/08 00:12:38;;;;;;;16.98;9.00;;;-3.40;83.60;;;;;;5014833;28;20460;-78
2022/01/08 00:15:06;;;;;;;22.25;9.13;;;-3.40;84.30;;;;;;5014535;28;20025;-78
2022/01/08 00:17:32;;;;;;;16.55;8.10;;;-3.40;84.00;;;;;;5013324;28;20038;-78
2022/01/08 00:19:58;;;;;;;18.05;9.02;;;-3.40;85.30;;;;;;5016131;28;20029;-78
2022/01/08 00:22:24;;;;;;;15.27;7.57;;;-3.50;84.00;;;;;;5014460;28;20109;-79
2022/01/08 00:24:53;;;;;;;15.60;7.82;;;-3.50;85.20;;;;;;5013396;28;20460;-79
2022/01/08 00:27:20;;;;;;;15.38;7.65;;;-3.50;86.30;;;;;;5014944;28;20022;-79
2022/01/08 00:29:46;;;;;;;15.23;6.50;;;-3.50;85.10;;;;;;5014275;28;20041;-78
2022/01/08 00:32:13;;;;;;;15.48;7.47;;;-3.60;85.50;;;;;;5014518;28;20029;-79
2022/01/08 00:34:39;;;;;;;12.73;6.05;;;-3.60;85.50;;;;;;5017249;28;20054;-79
2022/01/08 00:37:06;;;;;;;14.75;6.53;;;-3.60;85.20;;;;;;5018408;28;20092;-79
2022/01/08 00:39:32;;;;;;;13.98;5.55;;;-3.60;86.90;;;;;;5000865;28;20589;-78
2022/01/08 00:41:58;;;;;;;12.25;6.20;;;-3.60;86.90;;;;;;5018887;28;20104;-78
2022/01/08 00:44:23;;;;;;;12.68;6.22;;;-3.60;87.30;;;;;;5001545;28;20109;-78
2022/01/08 00:46:49;;;;;;;14.02;6.38;;;-3.60;87.30;;;;;;5018664;28;20456;-78
2022/01/08 00:49:15;;;;;;;12.60;5.80;;;-3.60;89.10;;;;;;5018556;28;20029;-78
2022/01/08 00:51:40;;;;;;;12.65;5.85;;;-3.60;87.20;;;;;;5019118;28;20062;-79
2022/01/08 00:54:06;;;;;;;11.60;5.65;;;-3.60;87.60;;;;;;5018584;28;20411;-78
2022/01/08 00:56:32;;;;;;;9.73;4.97;;;-3.60;86.90;;;;;;5000895;28;20048;-79
2022/01/08 00:58:57;;;;;;;10.13;5.57;;;-3.60;86.10;;;;;;5001433;28;20030;-79
2022/01/08 01:01:23;;;;;;;12.70;5.25;;;-3.70;85.90;;;;;;5002185;28;20030;-79
2022/01/08 01:03:49;;;;;;;10.55;5.43;;;-3.70;85.80;;;;;;5019184;28;20030;-79
2022/01/08 01:06:14;;;;;;;10.57;5.63;;;-3.80;86.10;;;;;;5018752;28;20030;-79
2022/01/08 01:08:40;;;;;;;13.38;5.53;;;-3.80;86.10;;;;;;5018396;28;20033;-79
2022/01/08 01:11:06;;;;;;;11.77;6.05;;;-3.80;86.90;;;;;;5019636;28;20033;-79
2022/01/08 01:13:31;;;;;;;10.10;5.72;;;-3.90;86.60;;;;;;5017752;28;20037;-79
2022/01/08 01:15:57;;;;;;;18.40;8.60;;;-3.90;86.80;;;;;;5019821;28;20488;-79
2022/01/08 01:18:23;;;;;;;18.00;9.45;;;-3.90;86.90;;;;;;5021265;28;20430;-79
2022/01/08 01:20:50;;;;;;;20.75;9.88;;;-3.90;87.00;;;;;;5021468;28;20113;-79
2022/01/08 01:23:21;;;;;;;20.35;9.13;;;-3.90;87.80;;;;;;5018772;28;20022;-79
2022/01/08 01:25:54;;;;;;;18.27;8.60;;;-3.90;87.70;;;;;;5017825;28;20037;-79
2022/01/08 01:28:32;;;;;;;17.15;7.70;;;-3.90;87.90;;;;;;5018839;28;20029;-79
2022/01/08 01:47:03;;;;;;;13.50;6.40;;;-3.90;90.20;;;;;;5017944;28;20122;-79
2022/01/08 01:49:35;;;;;;;10.07;5.40;;;-3.90;90.70;;;;;;5017054;28;20380;-79
2022/01/08 01:52:03;;;;;;;11.23;5.82;;;-3.90;90.20;;;;;;5018048;28;20438;-79
2022/01/08 01:54:30;;;;;;;11.20;4.95;;;-3.90;89.80;;;;;;5017463;28;20150;-78
2022/01/08 01:56:59;;;;;;;10.45;5.35;;;-3.90;89.20;;;;;;5000085;28;20038;-79
2022/01/08 01:59:26;;;;;;;11.57;5.70;;;-3.90;89.20;;;;;;5017690;28;20535;-78
2022/01/08 02:01:52;;;;;;;12.75;5.65;;;-3.90;89.20;;;;;;5015852;28;20041;-78
2022/01/08 02:04:17;;;;;;;11.55;5.82;;;-4.00;90.50;;;;;;5016272;28;20029;-78
2022/01/08 02:06:43;;;;;;;10.27;4.90;;;-3.90;90.50;;;;;;4999880;28;20034;-79
2022/01/08 02:09:09;;;;;;;8.48;4.50;;;-3.90;90.30;;;;;;5017908;28;20429;-79
2022/01/08 02:11:56;;;;;;;9.05;4.70;;;-3.90;89.70;;;;;;5016166;28;20029;-79
2022/01/08 02:14:22;;;;;;;12.70;6.45;;;-4.00;90.00;;;;;;5017565;28;20464;-78
2022/01/08 02:16:48;;;;;;;12.85;7.05;;;-4.00;90.40;;;;;;5019187;28;20070;-79
2022/01/08 02:19:14;;;;;;;14.05;6.63;;;-4.00;90.80;;;;;;5017371;28;20026;-78
2022/01/08 02:21:49;;;;;;;8.85;5.07;;;-4.00;90.70;;;;;;5017232;28;20423;-79
2022/01/08 02:24:15;;;;;;;10.65;5.90;;;-4.00;91.20;;;;;;5017183;28;20491;-79
2022/01/08 02:26:41;;;;;;;10.25;4.70;;;-4.00;90.60;;;;;;5015412;28;20030;-78
2022/01/08 02:29:10;;;;;;;7.63;4.07;;;-4.00;90.40;;;;;;5016791;28;20032;-78
2022/01/08 02:31:36;;;;;;;7.80;4.28;;;-4.00;90.30;;;;;;5016591;28;20464;-78
2022/01/08 02:34:02;;;;;;;7.35;3.75;;;-4.00;90.80;;;;;;5016525;28;20069;-79
2022/01/08 02:36:28;;;;;;;8.25;4.38;;;-4.10;90.50;;;;;;5016989;28;20065;-79
2022/01/08 02:38:53;;;;;;;8.95;4.30;;;-4.10;91.30;;;;;;5016421;28;20026;-79
2022/01/08 02:41:19;;;;;;;11.10;4.25;;;-4.10;90.80;;;;;;5016358;28;20022;-78
2022/01/08 02:43:52;;;;;;;9.38;4.03;;;-4.10;90.50;;;;;;4998853;28;20030;-79
2022/01/08 02:46:18;;;;;;;7.57;4.05;;;-4.10;91.10;;;;;;5016721;28;20022;-78
2022/01/08 02:48:43;;;;;;;9.75;4.88;;;-4.10;91.20;;;;;;5016441;28;20092;-79
2022/01/08 02:51:09;;;;;;;8.68;3.83;;;-4.10;91.60;;;;;;5016265;28;20493;-78
2022/01/08 02:53:34;;;;;;;6.30;3.47;;;-4.10;90.80;;;;;;4998789;28;20460;-78
2022/01/08 02:56:00;;;;;;;7.20;4.07;;;-4.10;90.90;;;;;;4998712;28;20030;-78
2022/01/08 02:58:28;;;;;;;7.45;3.80;;;-4.10;91.70;;;;;;4999153;28;20033;-79
2022/01/08 03:00:55;;;;;;;4.93;3.28;;;-4.10;91.50;;;;;;5016784;28;20448;-79
2022/01/08 03:03:20;;;;;;;5.57;3.13;;;-4.10;90.90;;;;;;5016608;28;20018;-79
2022/01/08 03:05:46;;;;;;;7.60;3.80;;;-4.10;90.90;;;;;;4999446;28;20026;-79
2022/01/08 03:08:12;;;;;;;7.82;3.17;;;-4.10;91.00;;;;;;5016087;28;20066;-79
2022/01/08 03:10:38;;;;;;;6.18;3.10;;;-4.20;90.90;;;;;;4998653;28;20030;-79
2022/01/08 03:13:04;;;;;;;5.90;2.97;;;-4.10;90.80;;;;;;5017202;28;20026;-79
2022/01/08 03:15:35;;;;;;;4.95;2.95;;;-4.10;90.80;;;;;;5018314;28;20483;-77
2022/01/08 03:18:04;;;;;;;4.82;2.90;;;-4.10;90.90;;;;;;5016745;28;20037;-79
2022/01/08 03:20:30;;;;;;;4.30;2.83;;;-4.10;91.10;;;;;;5016227;28;20034;-79
2022/01/08 03:23:02;;;;;;;5.18;2.90;;;-4.10;90.80;;;;;;5015888;28;20033;-78
2022/01/08 03:25:28;;;;;;;4.97;2.75;;;-4.10;90.80;;;;;;5015611;28;20104;-79
2022/01/08 03:27:54;;;;;;;3.58;2.50;;;-4.10;90.80;;;;;;5015062;28;20030;-79
2022/01/08 03:30:20;;;;;;;5.63;3.10;;;-4.20;90.60;;;;;;4997454;28;20081;-79
2022/01/08 03:32:46;;;;;;;5.07;3.17;;;-4.20;91.00;;;;;;4997802;28;20054;-79
2022/01/08 03:35:12;;;;;;;4.88;2.63;;;-4.20;91.20;;;;;;5015790;28;20088;-79
2022/01/08 03:37:38;;;;;;;4.35;2.97;;;-4.20;90.60;;;;;;5015562;28;20037;-79
2022/01/08 03:40:06;;;;;;;5.40;2.60;;;-4.20;90.50;;;;;;5015571;28;20026;-79
2022/01/08 03:42:32;;;;;;;5.20;3.05;;;-4.20;90.50;;;;;;5014953;28;20080;-78
2022/01/08 03:44:57;;;;;;;5.53;2.70;;;-4.30;90.50;;;;;;5014568;28;20449;-79
2022/01/08 03:47:42;;;;;;;4.57;3.03;;;-4.30;90.40;;;;;;5015042;28;20036;-78
2022/01/08 03:50:08;;;;;;;5.35;3.33;;;-4.30;91.50;;;;;;5014258;28;20084;-78
2022/01/08 03:52:34;;;;;;;12.77;4.20;;;-4.30;91.50;;;;;;5015009;28;20431;-78
2022/01/08 03:54:59;;;;;;;7.15;3.55;;;-4.20;92.00;;;;;;4997519;28;20030;-79
2022/01/08 03:57:25;;;;;;;7.65;3.50;;;-4.20;91.40;;;;;;5015814;28;20384;-79
2022/01/08 03:59:51;;;;;;;5.72;3.30;;;-4.20;91.40;;;;;;5015621;28;20441;-77
2022/01/08 04:02:16;;;;;;;7.55;3.63;;;-4.20;91.40;;;;;;5014999;28;20026;-78
2022/01/08 04:04:42;;;;;;;6.00;3.60;;;-4.10;91.60;;;;;;5015406;28;20061;-78
2022/01/08 04:07:08;;;;;;;4.18;2.97;;;-4.10;91.30;;;;;;5013223;28;20029;-79
2022/01/08 04:09:34;;;;;;;7.65;3.75;;;-4.20;90.90;;;;;;5013978;28;20072;-78
2022/01/08 04:11:59;;;;;;;7.50;4.55;;;-4.20;90.90;;;;;;4999621;28;20030;-78
2022/01/08 04:14:32;;;;;;;7.28;3.95;;;-4.20;91.20;;;;;;5015382;28;20030;-78
2022/01/08 04:16:58;;;;;;;6.90;3.60;;;-4.30;91.20;;;;;;5015536;28;20034;-78
2022/01/08 04:19:24;;;;;;;9.40;4.55;;;-4.30;91.40;;;;;;4997422;28;20026;-79
2022/01/08 04:22:11;;;;;;;8.18;4.50;;;-4.30;91.80;;;;;;4997587;28;20068;-79
2022/01/08 04:24:36;;;;;;;6.22;4.05;;;-4.30;92.60;;;;;;5015265;28;20054;-80
2022/01/08 04:27:02;;;;;;;7.75;3.78;;;-4.20;92.50;;;;;;5015239;28;20537;-79
2022/01/08 04:29:28;;;;;;;9.25;4.93;;;-4.10;91.80;;;;;;4997092;28;20388;-79
2022/01/08 04:31:54;;;;;;;10.82;5.55;;;-4.10;91.40;;;;;;5014814;28;20081;-79
2022/01/08 04:34:19;;;;;;;15.18;5.38;;;-4.20;91.40;;;;;;5015084;28;20077;-78
2022/01/08 04:36:45;;;;;;;8.80;5.32;;;-4.20;91.40;;;;;;5014561;28;20034;-78
2022/01/08 04:39:11;;;;;;;9.25;4.88;;;-4.20;91.60;;;;;;5013446;28;20456;-79
2022/01/08 04:41:36;;;;;;;10.23;4.88;;;-4.20;91.30;;;;;;5015035;28;20049;-78
2022/01/08 04:44:02;;;;;;;9.15;4.45;;;-4.30;91.90;;;;;;5015021;28;20063;-77
2022/01/08 04:46:28;;;;;;;7.63;4.40;;;-4.30;91.80;;;;;;5015015;28;20108;-78
2022/01/08 04:48:53;;;;;;;13.90;4.65;;;-4.30;91.70;;;;;;5014384;28;20444;-79
2022/01/08 04:51:19;;;;;;;9.05;5.30;;;-4.40;91.90;;;;;;5014535;28;20117;-78
2022/01/08 04:53:44;;;;;;;9.02;5.20;;;-4.40;91.80;;;;;;4996832;28;20061;-79
2022/01/08 04:56:10;;;;;;;12.25;6.15;;;-4.40;91.90;;;;;;5014600;28;20062;-79
2022/01/08 04:58:36;;;;;;;8.23;4.70;;;-4.40;91.80;;;;;;5014499;28;20076;-79
2022/01/08 05:01:01;;;;;;;7.60;4.90;;;-4.40;91.70;;;;;;5013509;28;20376;-78
2022/01/08 05:03:27;;;;;;;7.43;4.43;;;-4.40;92.00;;;;;;5017120;28;20018;-78
2022/01/08 05:05:53;;;;;;;8.65;4.22;;;-4.40;92.10;;;;;;5025249;28;20026;-78
2022/01/08 05:08:18;;;;;;;10.40;4.63;;;-4.40;92.80;;;;;;5016156;28;20038;-79
2022/01/08 05:10:44;;;;;;;8.93;4.00;;;-4.40;92.90;;;;;;5013393;28;20029;-78
2022/01/08 05:13:10;;;;;;;7.72;3.80;;;-4.40;92.10;;;;;;5013729;28;20026;-78
2022/01/08 05:15:36;;;;;;;7.57;4.05;;;-4.50;92.30;;;;;;5012863;28;20041;-79
2022/01/08 05:18:04;;;;;;;6.15;3.60;;;-4.50;92.30;;;;;;5015066;28;20124;-78
2022/01/08 05:20:33;;;;;;;6.57;3.60;;;-4.60;92.40;;;;;;5017071;28;20113;-78
2022/01/08 05:23:02;;;;;;;6.78;3.97;;;-4.60;91.90;;;;;;5017919;28;20054;-79
2022/01/08 05:25:29;;;;;;;5.65;3.42;;;-4.60;92.40;;;;;;5017249;28;20026;-78
2022/01/08 05:27:56;;;;;;;5.85;3.75;;;-4.60;92.30;;;;;;5017227;28;20040;-78
2022/01/08 05:30:24;;;;;;;10.93;4.40;;;-4.60;92.30;;;;;;5017192;28;20113;-77
2022/01/08 05:32:50;;;;;;;6.70;3.88;;;-4.70;92.40;;;;;;4996275;28;20190;-79
2022/01/08 05:35:16;;;;;;;8.63;4.45;;;-4.70;92.50;;;;;;4996853;28;20030;-79
2022/01/08 05:37:42;;;;;;;9.35;5.03;;;-4.70;92.70;;;;;;4996213;28;20449;-78
2022/01/08 05:40:09;;;;;;;8.75;5.22;;;-4.80;92.90;;;;;;4997795;28;20445;-78
2022/01/08 05:42:34;;;;;;;10.82;5.90;;;-4.80;93.40;;;;;;4996070;28;20476;-78
2022/01/08 05:45:00;;;;;;;12.02;6.55;;;-4.80;93.30;;;;;;4997486;28;20037;-78
2022/01/08 05:47:30;;;;;;;13.80;6.72;;;-4.80;93.40;;;;;;4979854;28;20428;-78
2022/01/08 05:49:55;;;;;;;11.85;7.13;;;-4.80;93.50;;;;;;4997291;28;20058;-78
2022/01/08 05:52:21;;;;;;;15.23;9.30;;;-4.80;93.40;;;;;;4997139;28;20062;-78
2022/01/08 05:54:47;;;;;;;13.15;7.70;;;-4.80;93.30;;;;;;4997200;28;20030;-78
2022/01/08 05:57:13;;;;;;;8.65;5.88;;;-4.80;93.60;;;;;;4979447;28;20041;-77
2022/01/08 05:59:38;;;;;;;9.88;6.10;;;-4.80;93.50;;;;;;4995857;28;20035;-78
2022/01/08 06:02:05;;;;;;;12.07;6.25;;;-4.90;93.70;;;;;;4996660;28;20428;-78
2022/01/08 06:04:31;;;;;;;8.25;5.53;;;-4.80;93.70;;;;;;4996688;28;20058;-79
2022/01/08 06:06:57;;;;;;;9.55;5.40;;;-4.80;93.80;;;;;;4996565;28;20460;-79
2022/01/08 06:09:22;;;;;;;9.73;5.32;;;-4.80;93.80;;;;;;4996776;28;20061;-78
2022/01/08 06:11:48;;;;;;;11.02;6.15;;;-4.70;93.90;;;;;;4980457;28;20030;-78
2022/01/08 06:14:14;;;;;;;13.95;7.43;;;-4.70;94.00;;;;;;4980806;28;20441;-79
2022/01/08 06:16:39;;;;;;;15.40;8.30;;;-4.70;94.00;;;;;;4995682;28;20439;-79
2022/01/08 06:19:09;;;;;;;20.40;11.38;;;-4.70;94.20;;;;;;4995398;28;20157;-79
2022/01/08 06:21:36;;;;;;;22.20;11.35;;;-4.70;94.60;;;;;;4995311;28;20054;-79
2022/01/08 06:24:02;;;;;;;23.05;11.70;;;-4.60;94.60;;;;;;4996886;28;20377;-79
2022/01/08 06:26:27;;;;;;;17.35;9.63;;;-4.60;94.10;;;;;;4996473;28;20030;-79
2022/01/08 06:28:53;;;;;;;14.48;7.63;;;-4.60;94.20;;;;;;4995889;28;20062;-79
2022/01/08 06:31:20;;;;;;;14.00;7.28;;;-4.50;94.10;;;;;;4978246;28;20030;-78
2022/01/08 06:33:47;;;;;;;12.45;6.88;;;-4.40;94.10;;;;;;4999055;28;20061;-78
2022/01/08 06:36:13;;;;;;;12.57;6.05;;;-4.40;94.00;;;;;;5015331;28;20131;-79
2022/01/08 06:38:39;;;;;;;16.25;7.55;;;-4.30;93.80;;;;;;4997482;28;20041;-78
2022/01/08 06:41:05;;;;;;;16.55;7.85;;;-4.30;93.80;;;;;;4997423;28;20025;-78
2022/01/08 06:43:33;;;;;;;16.17;8.27;;;-4.30;94.00;;;;;;4997348;28;20057;-79
2022/01/08 06:45:58;;;;;;;14.25;8.50;;;-4.20;94.10;;;;;;4997677;28;20026;-78
2022/01/08 06:48:24;;;;;;;30.27;16.20;;;-4.20;94.10;;;;;;4997376;28;20025;-78
2022/01/08 06:50:50;;;;;;;32.03;17.15;;;-4.10;94.50;;;;;;5015040;28;20206;-78
2022/01/08 06:53:16;;;;;;;25.38;13.50;;;-4.10;94.70;;;;;;5015327;28;20033;-79
2022/01/08 06:55:44;;;;;;;28.23;13.90;;;-4.10;94.60;;;;;;5013886;28;20080;-79
2022/01/08 06:58:13;;;;;;;29.00;13.98;;;-4.00;94.50;;;;;;5014896;28;20030;-79
2022/01/08 07:00:39;;;;;;;31.08;14.52;;;-3.90;95.20;;;;;;5015261;28;20135;-79
2022/01/08 07:03:09;;;;;;;33.88;16.85;;;-3.70;98.90;;;;;;4997269;28;20025;-79
2022/01/08 07:05:36;;;;;;;32.38;15.30;;;-3.30;99.90;;;;;;5015502;28;20026;-79
2022/01/08 07:08:01;;;;;;;31.25;13.30;;;-2.70;99.90;;;;;;5014871;28;20030;-78
2022/01/08 07:10:27;;;;;;;27.63;13.75;;;-2.00;99.90;;;;;;4997164;28;20022;-78
2022/01/08 07:12:53;;;;;;;31.00;13.85;;;-1.40;99.90;;;;;;5015019;28;20081;-79
2022/01/08 07:15:18;;;;;;;25.45;12.10;;;-0.80;99.80;;;;;;5013555;28;20030;-79
2022/01/08 07:17:44;;;;;;;22.23;10.43;;;-0.20;98.20;;;;;;5014905;28;20117;-79
2022/01/08 07:20:10;;;;;;;26.50;12.00;;;0.20;96.90;;;;;;5014657;28;20026;-79
2022/01/08 07:22:36;;;;;;;25.55;11.48;;;0.70;95.00;;;;;;5013198;28;20022;-79
2022/01/08 07:25:03;;;;;;;24.77;11.18;;;1.10;94.10;;;;;;5014377;28;20022;-79
2022/01/08 07:27:32;;;;;;;25.33;11.02;;;1.40;92.80;;;;;;5014384;28;20120;-78
2022/01/08 07:29:58;;;;;;;21.02;10.15;;;1.80;91.70;;;;;;4996823;28;20176;-79
2022/01/08 07:32:23;;;;;;;23.08;10.95;;;2.10;90.40;;;;;;5013082;28;20028;-78
2022/01/08 07:34:49;;;;;;;21.48;11.02;;;2.40;88.30;;;;;;5012871;28;20440;-79
2022/01/08 07:37:15;;;;;;;20.35;9.80;;;2.70;86.40;;;;;;5014562;28;20062;-81
2022/01/08 07:39:40;;;;;;;20.25;10.63;;;2.90;83.40;;;;;;4997041;28;20388;-79
2022/01/08 07:42:07;;;;;;;20.05;9.82;;;3.10;83.10;;;;;;5014613;28;20449;-80
2022/01/08 07:44:33;;;;;;;20.60;9.98;;;3.30;82.50;;;;;;5014764;28;20361;-80
2022/01/08 07:47:00;;;;;;;20.40;10.30;;;3.50;79.50;;;;;;5014083;28;20101;-78
2022/01/08 07:49:26;;;;;;;19.02;10.27;;;3.70;77.40;;;;;;5014205;28;20057;-79
2022/01/08 07:51:52;;;;;;;18.58;10.48;;;4.00;77.30;;;;;;5014131;28;20337;-79
2022/01/08 07:54:17;;;;;;;20.52;10.68;;;4.20;76.30;;;;;;5014140;28;20029;-79
2022/01/08 07:56:43;;;;;;;17.75;9.43;;;4.40;73.30;;;;;;5014039;28;20073;-79
2022/01/08 07:59:09;;;;;;;19.20;9.68;;;4.50;72.20;;;;;;5014046;28;20033;-80
2022/01/08 08:01:34;;;;;;;23.85;13.15;;;4.60;70.10;;;;;;5013838;28;20448;-79
2022/01/08 08:04:00;;;;;;;18.05;10.70;;;4.70;70.10;;;;;;5014304;28;20061;-80
2022/01/08 08:06:26;;;;;;;12.63;7.32;;;4.90;70.00;;;;;;4996639;28;20034;-80
2022/01/08 08:08:51;;;;;;;12.52;6.32;;;5.10;70.00;;;;;;5013939;28;20451;-79
2022/01/08 08:11:17;;;;;;;11.20;6.32;;;5.30;68.20;;;;;;5013932;28;20021;-79
2022/01/08 08:13:43;;;;;;;10.73;6.10;;;5.50;67.40;;;;;;5013791;28;20058;-80
2022/01/08 08:16:08;;;;;;;10.23;5.78;;;5.50;66.00;;;;;;4996572;28;20044;-80
2022/01/08 08:18:34;;;;;;;7.97;4.65;;;5.70;65.00;;;;;;5014408;28;20029;-80
2022/01/08 08:21:00;;;;;;;9.10;4.75;;;5.90;62.30;;;;;;4998149;28;20029;-80
2022/01/08 08:23:25;;;;;;;7.28;4.50;;;5.90;59.40;;;;;;4995979;28;20037;-79
2022/01/08 08:25:51;;;;;;;6.57;4.10;;;5.80;58.80;;;;;;5013535;28;20021;-78
2022/01/08 08:28:16;;;;;;;9.27;5.32;;;5.80;57.10;;;;;;5013728;28;20021;-79
2022/01/08 08:30:42;;;;;;;10.43;5.03;;;5.50;56.60;;;;;;4997881;28;20037;-79
2022/01/08 08:33:08;;;;;;;9.82;4.65;;;5.60;58.40;;;;;;4998282;28;20050;-79
2022/01/08 08:35:34;;;;;;;10.13;5.10;;;5.80;58.30;;;;;;5014004;28;20038;-79
2022/01/08 08:38:00;;;;;;;11.13;5.30;;;6.00;57.30;;;;;;5013665;28;20066;-80
2022/01/08 08:40:26;;;;;;;11.45;5.38;;;6.20;57.30;;;;;;5012274;28;20026;-79
2022/01/08 08:42:52;;;;;;;10.32;5.63;;;6.30;55.80;;;;;;5012056;28;20026;-80
2022/01/08 08:45:18;;;;;;;10.70;5.75;;;6.40;55.60;;;;;;5013484;28;20049;-79
2022/01/08 08:47:44;;;;;;;16.02;8.38;;;6.50;54.80;;;;;;5013415;28;20116;-79
2022/01/08 08:50:12;;;;;;;12.48;6.60;;;6.60;55.00;;;;;;5012883;28;20066;-79
2022/01/08 08:52:38;;;;;;;11.60;6.00;;;6.80;54.40;;;;;;5014125;28;20089;-80
2022/01/08 08:55:05;;;;;;;10.63;5.65;;;6.90;54.00;;;;;;5017373;28;20022;-79
2022/01/08 08:57:31;;;;;;;14.35;6.88;;;6.90;54.20;;;;;;5016348;28;20045;-79
2022/01/08 08:59:57;;;;;;;9.27;5.50;;;7.10;53.80;;;;;;5000691;28;20376;-80
2022/01/08 09:02:23;;;;;;;9.75;5.07;;;7.20;54.00;;;;;;5017749;28;20026;-80
2022/01/08 09:04:51;;;;;;;9.20;4.30;;;7.50;53.10;;;;;;5016143;28;20084;-79
2022/01/08 09:07:16;;;;;;;8.05;4.57;;;7.50;52.10;;;;;;5015870;28;20129;-81
2022/01/08 09:09:43;;;;;;;9.27;5.38;;;7.50;50.90;;;;;;5018093;28;20034;-81
2022/01/08 09:12:10;;;;;;;10.35;5.28;;;7.50;51.80;;;;;;5016469;28;20033;-79
2022/01/08 09:14:36;;;;;;;8.88;4.97;;;7.50;51.40;;;;;;5016828;28;20077;-79
2022/01/08 09:17:04;;;;;;;9.13;4.78;;;7.50;50.80;;;;;;5017243;28;20038;-80
2022/01/08 09:19:31;;;;;;;10.00;5.53;;;7.50;49.10;;;;;;5017158;28;20101;-80
2022/01/08 09:21:57;;;;;;;12.60;5.35;;;7.30;49.30;;;;;;5017196;28;20112;-79
2022/01/08 09:24:23;;;;;;;9.00;4.40;;;7.10;48.70;;;;;;4999179;28;20030;-79
2022/01/08 09:26:49;;;;;;;8.85;4.32;;;7.00;48.50;;;;;;5015566;28;20034;-78
2022/01/08 09:29:16;;;;;;;7.00;3.60;;;6.80;48.70;;;;;;5016998;28;20033;-79
2022/01/08 09:31:42;;;;;;;7.70;3.88;;;6.70;49.60;;;;;;4998968;28;20101;-78
2022/01/08 09:34:08;;;;;;;8.55;4.05;;;6.90;49.30;;;;;;5016370;28;20100;-78
2022/01/08 09:36:37;;;;;;;7.20;3.90;;;7.20;48.60;;;;;;5016505;28;20373;-78
2022/01/08 09:39:04;;;;;;;7.38;4.00;;;7.40;47.90;;;;;;5016188;28;20072;-79
2022/01/08 09:41:30;;;;;;;6.90;4.18;;;7.50;48.20;;;;;;5016269;28;20026;-79
2022/01/08 09:43:55;;;;;;;6.70;3.42;;;7.60;47.90;;;;;;5016998;28;20033;-79
2022/01/08 09:46:21;;;;;;;6.53;3.65;;;7.70;47.90;;;;;;4998991;28;20110;-79
2022/01/08 09:48:48;;;;;;;7.38;4.50;;;7.80;46.80;;;;;;5016539;28;20030;-80
2022/01/08 09:51:14;;;;;;;10.40;5.70;;;7.80;46.30;;;;;;5016328;28;20022;-80
2022/01/08 09:53:40;;;;;;;14.10;7.25;;;7.60;46.00;;;;;;5015154;28;20026;-80
2022/01/08 09:56:06;;;;;;;14.40;8.10;;;7.50;47.50;;;;;;5016545;28;20462;-79
2022/01/08 09:58:33;;;;;;;14.23;8.20;;;7.70;47.70;;;;;;4998545;28;20318;-80
2022/01/08 10:00:59;;;;;;;16.02;10.15;;;7.80;47.40;;;;;;5014858;28;20476;-80
2022/01/08 10:03:31;;;;;;;18.65;11.45;;;8.20;46.70;;;;;;4998204;28;20144;-81
2022/01/08 10:05:58;;;;;;;18.13;11.32;;;8.40;46.40;;;;;;4998189;28;20384;-80
2022/01/08 10:08:32;;;;;;;15.88;10.60;;;8.40;45.70;;;;;;4998221;28;20168;-81
2022/01/08 10:11:07;;;;;;;16.95;9.27;;;8.60;45.60;;;;;;4998606;28;20061;-80
2022/01/08 10:13:36;;;;;;;13.27;8.93;;;8.40;44.40;;;;;;5016503;28;20034;-80
2022/01/08 10:18:49;;;;;;;12.43;8.32;;;8.40;45.10;;;;;;5015850;28;20400;-80
2022/01/08 10:21:17;;;;;;;16.02;8.95;;;8.40;44.90;;;;;;5014154;28;20034;-80
2022/01/08 10:23:45;;;;;;;16.65;9.85;;;8.50;44.80;;;;;;4997935;28;20076;-80
2022/01/08 10:26:13;;;;;;;17.23;10.50;;;8.50;44.10;;;;;;5014374;28;20029;-80
2022/01/08 10:28:40;;;;;;;16.52;9.82;;;8.20;44.00;;;;;;4997770;28;20034;-80
2022/01/08 10:31:18;;;;;;;16.83;10.27;;;8.10;44.40;;;;;;5015527;28;20026;-81
2022/01/08 10:33:49;;;;;;;18.45;10.52;;;8.00;44.10;;;;;;4994082;28;20503;-80
2022/01/08 10:36:19;;;;;;;16.48;9.60;;;7.90;44.20;;;;;;4995371;28;20039;-79
2022/01/08 10:38:51;;;;;;;18.45;10.02;;;7.80;44.80;;;;;;4978247;28;20022;-79
2022/01/08 10:41:17;;;;;;;14.60;8.88;;;7.80;44.40;;;;;;4995907;28;20018;-80
2022/01/08 10:43:44;;;;;;;14.07;8.38;;;7.90;45.40;;;;;;4994996;28;20090;-82
2022/01/08 10:46:15;;;;;;;14.13;8.40;;;8.30;45.50;;;;;;4995733;28;20019;-80
2022/01/08 10:48:47;;;;;;;13.75;8.30;;;8.60;43.40;;;;;;4995135;28;20030;-80
2022/01/08 10:51:14;;;;;;;11.43;6.80;;;8.30;42.90;;;;;;4995836;28;20118;-81
2022/01/08 10:53:50;;;;;;;12.73;7.53;;;8.30;43.60;;;;;;4995333;28;20106;-80
2022/01/08 10:56:23;;;;;;;12.93;7.63;;;8.20;43.50;;;;;;4995535;28;20034;-80
2022/01/08 10:58:52;;;;;;;10.63;6.90;;;7.90;43.60;;;;;;4994024;28;20034;-80
2022/01/08 11:01:39;;;;;;;10.98;5.97;;;7.60;43.80;;;;;;4995322;28;20054;-79
2022/01/08 11:04:07;;;;;;;11.77;6.10;;;7.50;44.70;;;;;;4995398;28;20037;-79
2022/01/08 11:06:47;;;;;;;10.43;6.10;;;7.70;44.90;;;;;;4977759;28;20524;-80
2022/01/08 11:09:13;;;;;;;12.63;5.97;;;8.00;44.60;;;;;;4994376;28;20038;-80
2022/01/08 11:11:39;;;;;;;10.40;6.28;;;8.30;44.30;;;;;;4995603;28;20039;-79
2022/01/08 11:14:08;;;;;;;9.73;5.80;;;8.50;43.70;;;;;;4995377;28;20026;-80
2022/01/08 11:16:35;;;;;;;10.52;6.70;;;8.50;44.20;;;;;;4996793;28;20039;-81
2022/01/08 11:19:05;;;;;;;10.35;6.50;;;8.60;44.00;;;;;;4996608;28;20378;-80
2022/01/08 11:21:38;;;;;;;12.45;6.95;;;8.80;44.40;;;;;;4994928;28;20030;-80
2022/01/08 11:24:07;;;;;;;9.98;6.63;;;8.90;44.00;;;;;;4994979;28;20077;-79
2022/01/08 11:26:33;;;;;;;9.30;6.38;;;8.80;44.00;;;;;;4994759;28;20038;-80
2022/01/08 11:29:01;;;;;;;11.82;7.10;;;9.00;44.30;;;;;;4995105;28;20098;-80
2022/01/08 11:31:30;;;;;;;11.63;7.03;;;9.00;43.70;;;;;;4993309;28;20473;-80
2022/01/08 11:34:01;;;;;;;10.48;6.53;;;8.50;43.50;;;;;;4996476;28;20140;-80
2022/01/08 11:36:29;;;;;;;17.90;11.07;;;8.20;43.80;;;;;;5014623;28;20033;-79
2022/01/08 11:38:56;;;;;;;15.05;8.40;;;7.90;44.30;;;;;;5014371;28;20339;-79
2022/01/08 11:41:22;;;;;;;11.15;7.13;;;7.70;43.80;;;;;;4996649;28;20093;-80
2022/01/08 11:43:50;;;;;;;12.02;6.82;;;7.40;43.80;;;;;;5014365;28;20460;-79
2022/01/08 11:46:17;;;;;;;11.05;6.65;;;6.90;44.40;;;;;;5013760;28;20033;-79
2022/01/08 11:48:51;;;;;;;13.68;7.25;;;6.50;45.10;;;;;;4996428;28;20041;-80
2022/01/08 11:51:23;;;;;;;16.08;8.10;;;6.20;46.10;;;;;;4996696;28;20026;-79
2022/01/08 11:53:54;;;;;;;14.57;7.90;;;6.20;46.40;;;;;;4996784;28;20030;-79
2022/01/08 11:56:27;;;;;;;12.57;7.45;;;6.10;47.00;;;;;;5014428;28;20030;-79
2022/01/08 11:59:02;;;;;;;13.35;7.68;;;6.20;47.00;;;;;;5012905;28;20119;-79
2022/01/08 12:01:28;;;;;;;12.57;7.40;;;6.30;47.30;;;;;;5013699;28;20458;-80
2022/01/08 12:03:55;;;;;;;13.35;6.93;;;6.60;47.30;;;;;;4996394;28;20136;-80
2022/01/08 12:06:30;;;;;;;16.05;9.68;;;6.90;46.80;;;;;;4996681;28;20034;-79
2022/01/08 12:09:21;;;;;;;16.38;9.35;;;7.20;46.80;;;;;;4996671;28;20476;-79
2022/01/08 12:11:46;;;;;;;16.67;8.70;;;7.40;46.00;;;;;;5014627;28;20057;-79
2022/01/08 12:14:20;;;;;;;14.43;8.35;;;7.50;45.70;;;;;;5013808;28;20480;-81
2022/01/08 12:16:50;;;;;;;13.50;7.72;;;7.40;45.30;;;;;;4996165;28;20033;-80
2022/01/08 12:19:35;;;;;;;12.73;7.35;;;7.20;45.60;;;;;;4996473;28;20427;-80
2022/01/08 12:22:20;;;;;;;14.90;7.82;;;6.90;45.80;;;;;;4996280;28;20058;-79
2022/01/08 12:25:03;;;;;;;11.75;6.95;;;6.50;46.00;;;;;;4996146;28;20109;-79
2022/01/08 12:27:35;;;;;;;15.15;8.20;;;6.10;46.10;;;;;;5014766;28;20100;-79
2022/01/08 12:30:21;;;;;;;14.02;8.15;;;5.60;47.00;;;;;;5000532;28;20023;-79
2022/01/08 12:32:53;;;;;;;12.38;7.07;;;5.30;47.40;;;;;;4999258;28;20053;-79
2022/01/08 12:35:28;;;;;;;12.18;6.68;;;5.00;47.80;;;;;;5016397;28;20033;-81
2022/01/08 12:37:56;;;;;;;12.55;6.25;;;4.70;48.40;;;;;;5016365;28;20041;-80
2022/01/08 12:40:40;;;;;;;17.35;7.93;;;4.40;49.40;;;;;;5016117;28;20473;-79
2022/01/08 12:43:26;;;;;;;20.55;10.32;;;4.30;50.00;;;;;;5016284;28;20026;-79
2022/01/08 12:46:19;;;;;;;21.95;10.13;;;4.40;50.10;;;;;;5018055;28;20030;-79
2022/01/08 12:49:03;;;;;;;15.82;8.55;;;4.70;49.60;;;;;;5017315;28;20464;-79
2022/01/08 12:52:07;;;;;;;14.00;7.05;;;4.90;49.20;;;;;;5017510;28;20026;-79
2022/01/08 12:54:33;;;;;;;21.40;10.68;;;5.00;49.30;;;;;;5016168;28;20030;-79
2022/01/08 12:57:04;;;;;;;14.25;8.55;;;5.10;49.60;;;;;;4999788;28;20476;-79
2022/01/08 12:59:36;;;;;;;13.45;6.82;;;5.40;49.00;;;;;;5000503;28;20030;-79
2022/01/08 13:02:06;;;;;;;13.70;6.85;;;5.60;48.40;;;;;;5016084;28;20022;-80
2022/01/08 13:04:32;;;;;;;11.15;6.40;;;5.50;48.10;;;;;;4999807;28;20022;-80